Terminal Aerodrome Forecast
Issued by NWS Portland, OR

Home | Current Version | Previous Version | Text Only | Print | Product List | Glossary On
Versions: 1 2 3 4 5 6 7 8 9 10 11 12 13 14 15 16 17 18 19 20 21 22 23 24 25 26 27 28 29 30 31 32 33 34 35 36 37 38 39 40
952
FTUS46 KPQR 232321
TAFSLE
TAF
KSLE 232321Z 2400/2424 19012KT P6SM SCT035 OVC045
     FM240300 16010KT 5SM -SN SCT015 BKN025 OVC040
     FM240500 16010KT 1SM -SN BKN010 OVC020
     FM240900 19012KT P6SM -RASN BKN015 BKN025 OVC040
     FM241100 23015KT P6SM -RA SCT015 BKN025 OVC040
     FM241800 26013KT P6SM -SHRA SCT025 BKN035 OVC045=

USA.gov is the U.S. government's official web portal to all federal, state and local government web resources and services.